Terminal Aerodrome Forecast
Issued by NWS

Current Version | Previous Version | Text Only | Print | Product List | Glossary On
Versions: 1 2 3 4 5 6 7 8 9 10 11 12 13 14 15 16
138
FTUS44 KLIX 120933 AAB
TAFGPT
TAF AMD
KGPT 120933Z 1210/1306 00000KT 3/4SM BR VV012
      TEMPO 1210/1213 1/4SM FG VV002
     FM121430 28010G15KT P6SM BKN040=

USA.gov is the U.S. government's official web portal to all federal, state and local government web resources and services.